createdAt,value
2019-05-09T04:55:29.250Z,16.80
2019-05-09T04:58:00.147Z,17.10
2019-05-09T05:00:48.075Z,17.40
2019-05-09T05:03:18.339Z,17.50
2019-05-09T05:05:48.273Z,17.60
2019-05-09T05:08:18.181Z,17.70
2019-05-09T05:10:47.800Z,17.60
2019-05-09T05:13:26.458Z,17.10
2019-05-09T05:15:59.466Z,16.70
2019-05-09T05:18:28.606Z,16.40
2019-05-09T05:20:58.327Z,16.40
2019-05-09T05:23:33.838Z,16.60
2019-05-09T05:26:02.831Z,16.70
2019-05-09T05:28:31.902Z,17.00
2019-05-09T05:31:01.022Z,17.20
2019-05-09T05:33:53.347Z,17.40
2019-05-09T05:36:20.085Z,17.40
2019-05-09T05:38:49.194Z,17.10
2019-05-09T05:41:18.428Z,16.80
2019-05-09T05:43:47.995Z,17.00
2019-05-09T05:46:39.349Z,17.20
2019-05-09T05:49:08.395Z,17.70
2019-05-09T05:51:49.760Z,18.60
2019-05-09T05:54:22.241Z,19.40
2019-05-09T05:56:51.371Z,20.30
2019-05-09T05:59:20.515Z,20.70
2019-05-09T06:01:50.003Z,21.00
2019-05-09T06:04:19.089Z,21.50
2019-05-09T06:06:48.348Z,22.20
2019-05-09T06:09:19.054Z,23.00
2019-05-09T06:11:48.678Z,23.80
2019-05-09T06:14:18.641Z,24.30
2019-05-09T06:16:48.643Z,24.40
2019-05-09T06:19:18.280Z,24.30
2019-05-09T06:21:48.570Z,24.50
2019-05-09T06:24:18.233Z,25.00
2019-05-09T06:26:47.836Z,25.50
2019-05-09T06:29:17.876Z,25.40
2019-05-09T06:32:07.837Z,25.20
2019-05-09T06:34:41.838Z,24.80
2019-05-09T06:37:08.935Z,25.20
2019-05-09T06:39:38.565Z,25.20
2019-05-09T06:42:08.933Z,25.60
2019-05-09T06:45:07.864Z,26.30
2019-05-09T06:47:39.687Z,26.90
2019-05-09T06:50:10.812Z,27.40
2019-05-09T06:52:47.842Z,27.40
2019-05-09T06:55:17.353Z,27.50
2019-05-09T06:57:49.865Z,27.70
2019-05-09T07:00:34.306Z,27.70
2019-05-09T07:03:08.391Z,27.60
2019-05-09T07:05:57.981Z,27.40
2019-05-09T07:08:35.086Z,27.20
2019-05-09T07:11:04.210Z,26.90
2019-05-09T07:13:33.338Z,27.00
2019-05-09T07:16:02.533Z,27.30
2019-05-09T07:18:31.604Z,27.20
2019-05-09T07:21:00.669Z,26.40
2019-05-09T07:23:29.783Z,25.60
2019-05-09T07:26:24.327Z,24.70
2019-05-09T07:28:53.472Z,23.60
2019-05-09T07:31:32.660Z,22.80
2019-05-09T07:34:05.485Z,22.30
2019-05-09T07:36:34.637Z,21.90
2019-05-09T07:39:08.669Z,22.00
2019-05-09T07:41:38.388Z,22.60
2019-05-09T07:44:07.820Z,22.70
2019-05-09T07:46:52.838Z,22.50
2019-05-09T07:49:21.874Z,22.80
2019-05-09T07:51:51.023Z,23.20
2019-05-09T07:54:25.541Z,24.00
2019-05-09T07:56:52.142Z,24.50
2019-05-09T07:59:21.216Z,24.30
2019-05-09T08:01:50.349Z,23.80
2019-05-09T08:04:19.514Z,23.40
2019-05-09T08:06:48.779Z,23.40
2019-05-09T08:09:18.783Z,23.10
2019-05-09T08:11:48.431Z,22.80
2019-05-09T08:14:17.903Z,22.30
2019-05-09T08:16:47.659Z,21.80
2019-05-09T08:19:18.126Z,20.90
2019-05-09T08:21:48.003Z,20.10
2019-05-09T08:24:18.277Z,19.80
2019-05-09T08:26:47.894Z,19.70
2019-05-09T08:29:17.779Z,19.60
2019-05-09T08:31:48.585Z,19.60
2019-05-09T08:34:18.668Z,19.20
2019-05-09T08:36:48.000Z,18.90
2019-05-09T08:39:20.170Z,18.40
2019-05-09T08:41:48.606Z,18.00
2019-05-09T08:44:18.647Z,17.50
2019-05-09T08:46:48.215Z,17.20
2019-05-09T08:49:19.235Z,17.00
2019-05-09T08:52:08.203Z,16.80
2019-05-09T08:54:41.972Z,16.80
2019-05-09T08:57:11.063Z,16.80
2019-05-09T08:59:40.126Z,17.00
2019-05-09T09:02:15.432Z,17.10
2019-05-09T09:04:41.223Z,17.00
2019-05-09T09:07:10.321Z,17.00
2019-05-09T09:09:39.362Z,17.00
2019-05-09T09:12:25.221Z,16.80
2019-05-09T09:14:39.351Z,16.70
2019-05-09T09:17:08.479Z,16.60
2019-05-09T09:19:38.573Z,16.50
2019-05-09T09:22:08.894Z,16.40
2019-05-09T09:24:38.327Z,16.30
2019-05-09T09:27:07.837Z,16.30
2019-05-09T09:29:38.000Z,16.30
2019-05-09T09:32:08.264Z,16.20
2019-05-09T09:34:38.066Z,16.00
2019-05-09T09:37:11.186Z,15.90
2019-05-09T09:39:44.458Z,15.90
2019-05-09T09:42:09.311Z,15.90
2019-05-09T09:44:39.328Z,16.10
2019-05-09T09:47:08.727Z,16.40
2019-05-09T09:49:38.450Z,16.60
2019-05-09T09:52:08.689Z,16.70
2019-05-09T09:54:38.687Z,16.70
2019-05-09T09:57:09.604Z,16.80
2019-05-09T09:59:58.503Z,16.90
2019-05-09T10:02:33.747Z,16.80
2019-05-09T10:05:03.151Z,16.60
2019-05-09T10:07:32.190Z,16.60
2019-05-09T10:10:01.303Z,16.50
2019-05-09T10:12:30.407Z,16.40
2019-05-09T10:15:09.332Z,16.20
2019-05-09T10:17:58.117Z,16.00
2019-05-09T10:20:30.680Z,16.00
2019-05-09T10:23:10.987Z,16.00
2019-05-09T10:25:30.792Z,16.00
2019-05-09T10:27:59.857Z,15.90
2019-05-09T10:30:33.754Z,15.80
2019-05-09T10:33:02.863Z,15.80
2019-05-09T10:35:32.037Z,15.80
2019-05-09T10:38:01.131Z,15.80
2019-05-09T10:40:30.654Z,15.80
2019-05-09T10:43:38.650Z,16.00
2019-05-09T10:46:22.579Z,16.00
2019-05-09T10:48:59.456Z,16.10
2019-05-09T10:51:28.621Z,16.10
2019-05-09T10:53:58.788Z,16.30
2019-05-09T10:56:28.302Z,16.40
2019-05-09T10:58:58.500Z,16.50
2019-05-09T11:01:29.468Z,16.60
2019-05-09T11:03:59.185Z,16.50
2019-05-09T11:06:29.019Z,16.40
2019-05-09T11:08:58.755Z,16.40
2019-05-09T11:11:28.995Z,16.40
2019-05-09T11:13:58.952Z,16.40
2019-05-09T11:16:41.765Z,16.40
2019-05-09T11:18:59.136Z,16.40
2019-05-09T11:21:28.870Z,16.30
2019-05-09T11:23:58.639Z,16.30
2019-05-09T11:26:28.761Z,16.30
2019-05-09T11:28:58.715Z,16.40
2019-05-09T11:31:29.428Z,16.30
2019-05-09T11:33:59.444Z,16.30
2019-05-09T11:36:28.504Z,16.40
2019-05-09T11:41:02.048Z,16.40
2019-05-09T11:41:29.601Z,16.40
2019-05-09T11:43:59.704Z,16.40
2019-05-09T11:46:29.099Z,16.50
2019-05-09T11:48:58.585Z,16.50
2019-05-09T11:51:29.400Z,16.60
2019-05-09T11:53:58.826Z,16.80
2019-05-09T11:56:27.964Z,16.80
2019-05-09T11:58:57.936Z,16.70
2019-05-09T12:01:29.245Z,16.60
2019-05-09T12:03:58.142Z,16.50
2019-05-09T12:06:28.919Z,16.40
2019-05-09T12:08:58.768Z,16.30
2019-05-09T12:11:28.306Z,16.20
2019-05-09T12:13:58.219Z,16.10
2019-05-09T12:16:28.250Z,16.00
2019-05-09T12:18:58.494Z,15.80
2019-05-09T12:21:28.492Z,15.70
2019-05-09T12:23:58.485Z,15.60
2019-05-09T12:26:29.099Z,15.70
2019-05-09T12:28:58.589Z,15.80
2019-05-09T12:31:28.797Z,15.90
2019-05-09T12:33:59.398Z,15.90
2019-05-09T12:36:28.917Z,16.00
2019-05-09T12:38:59.065Z,16.00
2019-05-09T12:41:31.440Z,16.10
2019-05-09T12:43:59.588Z,16.10
2019-05-09T12:46:28.651Z,16.10
2019-05-09T12:48:59.139Z,15.90
2019-05-09T12:51:28.600Z,15.90
2019-05-09T12:53:58.120Z,16.00
2019-05-09T12:56:28.547Z,16.10
2019-05-09T12:58:58.154Z,16.10
2019-05-09T13:01:27.286Z,16.10
2019-05-09T13:03:58.344Z,16.10
2019-05-09T13:06:29.237Z,16.10
2019-05-09T13:08:58.791Z,16.00
2019-05-09T13:11:28.197Z,16.00
2019-05-09T13:13:57.420Z,16.10
2019-05-09T13:16:49.526Z,16.10
2019-05-09T13:19:18.481Z,16.20
2019-05-09T13:21:47.545Z,16.20
2019-05-09T13:24:19.518Z,16.20
2019-05-09T13:26:50.226Z,16.10
2019-05-09T13:29:19.314Z,16.10
2019-05-09T13:31:48.458Z,16.20
2019-05-09T13:34:18.792Z,16.30
2019-05-09T13:36:48.944Z,16.30
2019-05-09T13:39:18.359Z,16.20
2019-05-09T13:41:49.798Z,16.20
2019-05-09T14:33:44.804Z,16.80
2019-05-09T14:36:13.945Z,16.80
2019-05-09T14:38:42.905Z,16.70
2019-05-09T14:41:12.163Z,16.70
2019-05-09T14:43:42.202Z,16.70
2019-05-09T14:46:11.428Z,16.90
2019-05-09T14:48:40.494Z,17.00
2019-05-09T14:51:09.652Z,17.10
2019-05-09T14:53:39.093Z,17.10
2019-05-09T14:56:08.830Z,17.00
2019-05-09T14:58:38.916Z,16.90
2019-05-09T15:01:08.615Z,16.90
2019-05-09T15:03:38.958Z,16.80
2019-05-09T15:06:08.279Z,16.70
2019-05-09T15:08:38.185Z,16.80
2019-05-09T15:11:09.823Z,16.90
2019-05-09T15:13:38.318Z,16.90
2019-05-09T15:16:08.846Z,16.90
2019-05-09T15:18:38.661Z,16.80
2019-05-09T15:21:08.025Z,16.70
2019-05-09T15:23:39.188Z,16.60
2019-05-09T15:26:08.000Z,16.40
2019-05-09T15:28:38.603Z,16.30
2019-05-09T15:31:08.855Z,16.20
2019-05-09T15:33:38.190Z,16.00
2019-05-09T15:36:09.146Z,16.00
2019-05-09T15:38:38.127Z,15.90
2019-05-09T15:41:12.094Z,15.90
2019-05-09T15:43:38.244Z,16.00
2019-05-09T15:46:13.909Z,15.90
2019-05-09T15:48:43.039Z,15.90
2019-05-09T15:51:12.110Z,15.90
2019-05-09T15:53:41.206Z,15.90
2019-05-09T15:56:10.298Z,16.10
2019-05-09T15:58:39.389Z,16.20
2019-05-09T16:01:08.555Z,16.20
2019-05-09T16:03:38.289Z,16.20
2019-05-09T16:06:09.033Z,16.20
2019-05-09T16:08:39.307Z,16.30
2019-05-09T16:11:08.768Z,16.40
2019-05-09T16:13:37.974Z,16.50
2019-05-09T16:16:08.951Z,16.60
2019-05-09T16:18:37.855Z,16.60
2019-05-09T16:21:08.379Z,16.50
2019-05-09T16:23:38.056Z,16.40
2019-05-09T16:26:07.965Z,16.30
2019-05-09T16:28:37.948Z,16.20
2019-05-09T16:31:07.163Z,16.10
2019-05-09T16:33:36.229Z,16.00
2019-05-09T16:36:08.343Z,16.00
2019-05-09T16:38:45.772Z,16.00
2019-05-09T16:41:11.074Z,16.00
2019-05-09T16:43:40.215Z,16.10
2019-05-09T16:46:09.368Z,16.20
2019-05-09T16:48:38.474Z,16.30
2019-05-09T16:51:07.979Z,16.40
2019-05-09T16:53:37.270Z,16.40
2019-05-09T16:56:08.157Z,16.30
2019-05-09T16:58:37.907Z,16.20
2019-05-09T17:01:08.316Z,16.00
2019-05-09T17:03:37.459Z,15.90
2019-05-09T17:06:07.640Z,15.70
2019-05-09T17:08:38.562Z,15.60
2019-05-09T17:11:07.796Z,15.50
2019-05-09T17:13:36.887Z,15.30
2019-05-09T17:16:07.531Z,14.90
2019-05-09T17:18:38.200Z,14.30
2019-05-09T17:21:28.263Z,13.80
2019-05-09T17:23:58.352Z,13.40
2019-05-09T17:26:28.344Z,13.00
2019-05-09T17:28:58.893Z,12.70
2019-05-09T17:31:28.097Z,12.50
2019-05-09T17:33:57.904Z,12.30
2019-05-09T17:36:28.583Z,12.20
2019-05-09T17:38:57.965Z,12.00
2019-05-09T17:41:28.405Z,12.00
2019-05-09T17:43:58.242Z,11.90
2019-05-09T17:46:27.701Z,11.90
2019-05-09T17:51:34.058Z,11.80
2019-05-09T17:53:58.492Z,11.80
2019-05-09T17:56:27.550Z,11.80
2019-05-09T17:58:58.016Z,11.80
2019-05-09T18:01:27.724Z,11.70
2019-05-09T18:03:59.069Z,11.70
2019-05-09T18:06:28.289Z,11.70
2019-05-09T18:08:57.699Z,11.70
2019-05-09T18:11:26.957Z,11.70
2019-05-09T18:13:56.027Z,11.80
2019-05-09T18:16:28.274Z,11.70
2019-05-09T18:18:58.706Z,11.70
2019-05-09T18:21:28.285Z,11.70
2019-05-09T18:23:58.637Z,11.70
2019-05-09T18:26:27.939Z,11.70
2019-05-09T18:34:21.664Z,11.70
2019-05-09T18:36:50.713Z,11.60
2019-05-09T18:39:22.626Z,11.60
2019-05-09T18:41:51.748Z,11.70
2019-05-09T18:44:20.794Z,11.70
2019-05-09T18:46:49.895Z,11.70
2019-05-09T18:49:19.039Z,11.70
2019-05-09T18:52:01.633Z,11.70
2019-05-09T18:54:20.257Z,11.70
2019-05-09T18:56:49.385Z,11.70
2019-05-09T18:59:18.418Z,11.70
2019-05-09T19:01:47.518Z,11.70
2019-05-09T19:04:16.494Z,11.70
2019-05-09T19:06:45.579Z,11.70
2019-05-09T19:09:14.663Z,11.70
2019-05-09T19:11:44.031Z,11.60
2019-05-09T19:14:14.735Z,11.60
2019-05-09T19:17:01.469Z,11.60
2019-05-09T19:19:37.966Z,11.60
2019-05-09T19:22:21.572Z,11.50
2019-05-09T19:24:38.002Z,11.50
2019-05-09T19:27:07.101Z,11.50
2019-05-09T19:29:36.245Z,11.50
2019-05-09T19:32:05.431Z,11.50
2019-05-09T19:34:34.531Z,11.50
2019-05-09T19:37:03.694Z,11.50
2019-05-09T19:39:32.772Z,11.50
2019-05-09T19:42:01.884Z,11.50
2019-05-09T19:44:30.992Z,11.50
2019-05-09T19:47:01.731Z,11.50
2019-05-09T19:49:30.886Z,11.50
2019-05-09T19:51:59.994Z,11.50
2019-05-09T19:54:29.165Z,11.50
2019-05-09T19:56:58.201Z,11.40
2019-05-09T20:17:15.222Z,11.40
2019-05-09T20:19:44.290Z,11.40
2019-05-09T20:22:13.474Z,11.30
2019-05-09T20:24:42.483Z,11.30
2019-05-09T20:27:11.531Z,11.20
2019-05-09T20:29:40.632Z,11.20
2019-05-09T20:32:09.844Z,11.20
2019-05-09T20:34:39.033Z,11.20
2019-05-09T20:37:08.159Z,11.20
2019-05-09T20:39:37.461Z,11.10
2019-05-09T20:42:31.541Z,11.10
2019-05-09T20:45:00.858Z,11.10
2019-05-09T20:47:30.111Z,11.00
2019-05-09T20:49:59.400Z,11.10
2019-05-09T20:52:28.675Z,11.00
2019-05-09T20:54:57.940Z,11.00
2019-05-09T20:57:27.357Z,11.00
2019-05-09T20:59:56.612Z,11.00
2019-05-09T21:02:25.875Z,10.90
2019-05-09T21:05:19.939Z,10.90
2019-05-09T21:08:17.107Z,10.90
2019-05-09T21:10:46.370Z,10.80
2019-05-09T21:13:15.645Z,10.80
2019-05-09T21:15:44.939Z,10.70
2019-05-09T21:18:14.213Z,10.70
2019-05-09T21:20:43.507Z,10.70
2019-05-09T21:23:24.370Z,10.60
2019-05-09T21:25:43.815Z,10.60
2019-05-09T21:28:13.111Z,10.50
2019-05-09T21:30:42.315Z,10.40
2019-05-09T21:33:11.623Z,10.40
